Coggon, Iowa
Current Conditions -  °F | °C
As of 11:10 PM on Saturday 20 Dec 2014 (Local Time) from KMXO Reporting Station
Haze Haze  
Wind Chill: -4°   Ceiling: 300
Heat Index:   Visibility: 1.2mi
Dew Point:   Wind: 9mph
Humidity: 100%   Direction: 140°SE
Pressure: 30.16"   Gusts: NA
Location:  42.28°N, 91.53°W
Report Text: KMXO 210510Z AUTO 14008KT 1 1/4SM BR OVC003 00/00 A3016 RMK AO2
Loading
Personal Weather Stations






























Interactive Weather Map New forecast layout! Learn more

10-Day Weather Forecast

Advertisements
Track Severe Weather on mobile